Time;durP1;ratioP1;P1;durP2;ratioP2;P2;SDS_P1;SDS_P2;PMS_P1;PMS_P2;Temp;Humidity;BMP_temperature;BMP_pressure;BME280_temperature;BME280_humidity;BME280_pressure;Samples;Min_cycle;Max_cycle;Signal;HPM_P1;HPM_P2
2022/11/07 00:00:07;;;;;;;15.15;4.30;;;;;;;10.52;100.00;100574.91;10561831;28;20032;-73
2022/11/07 00:05:08;;;;;;;2.83;2.60;;;;;;;10.58;100.00;100576.78;10544918;28;20039;-73
2022/11/07 00:10:08;;;;;;;4.82;3.50;;;;;;;10.60;100.00;100580.13;10545903;28;20045;-72
2022/11/07 00:15:09;;;;;;;12.77;4.65;;;;;;;10.57;100.00;100575.13;10546397;28;20043;-72
2022/11/07 00:20:10;;;;;;;9.38;4.80;;;;;;;10.50;100.00;100569.69;10561841;28;20055;-72
2022/11/07 00:25:10;;;;;;;9.13;3.30;;;;;;;10.37;100.00;100569.66;10545933;28;20036;-73
2022/11/07 00:30:11;;;;;;;10.30;4.13;;;;;;;10.31;100.00;100575.91;10545375;28;20028;-72
2022/11/07 00:35:12;;;;;;;9.15;3.60;;;;;;;10.21;100.00;100578.94;10545313;28;20032;-72
2022/11/07 00:40:12;;;;;;;20.40;4.93;;;;;;;10.22;100.00;100589.56;10545492;28;20484;-73
2022/11/07 00:45:12;;;;;;;11.02;3.50;;;;;;;10.22;100.00;100586.03;10545476;28;20070;-72
2022/11/07 00:50:13;;;;;;;4.45;3.58;;;;;;;10.28;100.00;100579.84;10527060;28;20356;-71
2022/11/07 00:55:13;;;;;;;17.05;4.03;;;;;;;10.30;100.00;100602.09;10545198;28;20044;-72
2022/11/07 01:00:14;;;;;;;15.57;3.95;;;;;;;10.37;100.00;100594.88;10545752;28;20036;-73
2022/11/07 01:05:14;;;;;;;12.30;3.83;;;;;;;10.39;100.00;100611.72;10542680;28;20032;-73
2022/11/07 01:10:14;;;;;;;10.15;3.95;;;;;;;10.48;100.00;100631.31;10543305;28;20054;-73
2022/11/07 01:15:15;;;;;;;12.05;4.55;;;;;;;10.56;100.00;100627.59;10559879;28;20086;-71
2022/11/07 01:20:15;;;;;;;8.88;3.75;;;;;;;10.57;100.00;100634.69;10544199;28;20134;-73
2022/11/07 01:25:16;;;;;;;5.20;3.15;;;;;;;10.50;100.00;100620.28;10543698;28;20040;-72
2022/11/07 01:30:16;;;;;;;8.63;3.88;;;;;;;10.36;100.00;100636.47;10524644;28;20020;-73
2022/11/07 01:35:16;;;;;;;7.40;3.00;;;;;;;10.28;100.00;100636.69;10559116;28;20032;-73
2022/11/07 01:40:17;;;;;;;6.95;3.78;;;;;;;10.35;100.00;100634.81;10542582;28;20040;-70
2022/11/07 01:45:22;;;;;;;7.28;4.05;;;;;;;10.35;100.00;100642.94;10542515;28;20028;-74
2022/11/07 01:50:22;;;;;;;7.43;3.75;;;;;;;10.31;100.00;100635.44;10543049;28;20425;-73
2022/11/07 01:55:26;;;;;;;12.35;4.65;;;;;;;10.20;100.00;100628.69;10542348;28;20121;-73
2022/11/07 02:00:27;;;;;;;10.88;3.58;;;;;;;10.22;100.00;100630.16;10507681;28;20494;-72
2022/11/07 02:05:31;;;;;;;10.30;3.75;;;;;;;10.30;100.00;100637.28;10540037;28;20119;-73
2022/11/07 02:10:33;;;;;;;17.80;3.70;;;;;;;10.40;100.00;100645.03;10541707;28;20051;-74
2022/11/07 02:15:34;;;;;;;10.60;4.32;;;;;;;10.42;100.00;100653.78;10541654;28;20034;-72
2022/11/07 02:20:34;;;;;;;8.00;3.67;;;;;;;10.43;100.00;100634.66;10557007;28;20443;-73
2022/11/07 02:25:35;;;;;;;9.05;3.17;;;;;;;10.44;100.00;100639.03;10540161;28;20036;-72
2022/11/07 02:30:35;;;;;;;6.95;3.05;;;;;;;10.47;100.00;100649.44;10540951;28;20060;-73
2022/11/07 02:35:40;;;;;;;8.82;3.42;;;;;;;10.51;100.00;100651.75;10540989;28;20080;-73
2022/11/07 02:40:42;;;;;;;4.75;3.03;;;;;;;10.55;100.00;100653.00;10522307;28;20391;-72
2022/11/07 02:45:43;;;;;;;5.78;3.55;;;;;;;10.57;100.00;100657.19;10541299;28;20052;-75
2022/11/07 02:50:44;;;;;;;11.55;4.35;;;;;;;10.51;100.00;100649.03;10522462;28;20472;-76
2022/11/07 02:55:44;;;;;;;9.18;4.53;;;;;;;10.46;100.00;100655.91;10540577;28;20024;-76
2022/11/07 03:00:45;;;;;;;4.70;2.40;;;;;;;10.46;100.00;100658.63;10540371;28;20036;-75
2022/11/07 03:05:45;;;;;;;10.07;4.82;;;;;;;10.41;100.00;100647.56;10555933;28;20032;-74
2022/11/07 03:10:45;;;;;;;7.22;2.83;;;;;;;10.41;100.00;100657.53;10540552;28;20032;-76
2022/11/07 03:15:46;;;;;;;9.95;3.30;;;;;;;10.37;100.00;100659.81;10541200;28;20035;-76
2022/11/07 03:20:46;;;;;;;16.35;3.25;;;;;;;10.39;100.00;100657.72;10540679;28;20063;-76
2022/11/07 03:25:47;;;;;;;12.13;3.05;;;;;;;10.48;100.00;100651.09;10538088;28;20152;-76
2022/11/07 03:30:47;;;;;;;10.77;3.33;;;;;;;10.43;100.00;100642.78;10540871;28;20085;-74
2022/11/07 03:35:47;;;;;;;20.42;3.97;;;;;;;10.48;100.00;100640.28;10549242;28;20174;-77
2022/11/07 03:40:48;;;;;;;17.45;3.63;;;;;;;10.51;100.00;100641.75;10547881;28;20467;-76
2022/11/07 03:45:48;;;;;;;8.13;5.28;;;;;;;10.52;100.00;100643.41;10546765;28;20089;-76
2022/11/07 03:50:49;;;;;;;6.03;3.88;;;;;;;10.54;100.00;100649.47;10548554;28;20452;-75
2022/11/07 03:55:49;;;;;;;23.67;5.75;;;;;;;10.52;100.00;100648.00;10547815;28;20075;-77
2022/11/07 04:00:50;;;;;;;8.02;4.40;;;;;;;10.53;100.00;100649.66;10547118;28;20036;-76
2022/11/07 04:05:50;;;;;;;10.55;3.72;;;;;;;10.54;100.00;100652.19;10548196;28;20380;-76
2022/11/07 04:10:50;;;;;;;21.13;5.97;;;;;;;10.55;100.00;100661.13;10563318;28;20090;-74
2022/11/07 04:21:10;;;;;;;21.20;4.07;;;;;;;10.57;100.00;100657.19;10546488;28;20063;-74
2022/11/07 04:31:29;;;;;;;25.25;4.90;;;;;;;10.57;100.00;100646.34;10544436;28;20036;-72
2022/11/07 04:36:29;;;;;;;11.68;4.85;;;;;;;10.61;100.00;100646.78;10545683;28;20065;-73
2022/11/07 04:41:30;;;;;;;12.68;5.43;;;;;;;10.57;100.00;100664.47;10544048;28;20533;-73
2022/11/07 04:46:30;;;;;;;11.57;4.47;;;;;;;10.62;100.00;100661.97;10545362;28;20036;-73
2022/11/07 04:51:30;;;;;;;9.30;4.60;;;;;;;10.65;100.00;100669.69;10546791;28;20479;-73
2022/11/07 04:56:31;;;;;;;10.93;5.00;;;;;;;10.65;100.00;100651.56;10552085;28;20443;-72
2022/11/07 05:01:31;;;;;;;10.68;4.70;;;;;;;10.68;100.00;100656.56;10564926;28;20028;-73
2022/11/07 05:06:33;;;;;;;8.95;4.80;;;;;;;10.72;100.00;100665.16;10553608;28;20521;-74
2022/11/07 05:11:34;;;;;;;21.45;4.35;;;;;;;10.64;100.00;100658.03;10557249;28;20119;-72
2022/11/07 05:16:34;;;;;;;8.93;3.38;;;;;;;10.65;100.00;100665.09;10531905;28;20341;-73
2022/11/07 05:21:34;;;;;;;6.88;3.75;;;;;;;10.60;100.00;100661.38;10526394;28;20181;-72
2022/11/07 05:26:35;;;;;;;9.43;4.25;;;;;;;10.66;100.00;100653.25;10543082;28;20039;-74
2022/11/07 05:31:35;;;;;;;7.15;5.07;;;;;;;10.68;100.00;100675.53;10559125;28;20039;-74
2022/11/07 05:36:35;;;;;;;14.10;6.22;;;;;;;10.76;100.00;100671.81;10525616;28;20031;-74
2022/11/07 05:41:36;;;;;;;8.65;4.43;;;;;;;10.78;100.00;100674.31;10542404;28;20119;-73
2022/11/07 05:46:36;;;;;;;6.32;3.60;;;;;;;10.83;100.00;100669.13;10542024;28;20032;-77
2022/11/07 05:51:37;;;;;;;17.13;4.90;;;;;;;10.80;100.00;100669.53;10544265;28;20505;-76
2022/11/07 05:56:37;;;;;;;14.88;5.97;;;;;;;10.81;100.00;100666.59;10541055;28;20384;-76
2022/11/07 06:01:37;;;;;;;21.27;4.95;;;;;;;10.88;100.00;100663.91;10542612;28;20051;-77
2022/11/07 06:06:38;;;;;;;4.40;3.97;;;;;;;10.89;100.00;100673.72;10540720;28;20040;-72
2022/11/07 06:11:38;;;;;;;18.88;5.05;;;;;;;10.89;100.00;100671.84;10557084;28;20031;-72
2022/11/07 06:16:38;;;;;;;12.00;4.78;;;;;;;10.86;100.00;100680.38;10542251;28;20070;-72
2022/11/07 06:21:40;;;;;;;4.38;3.67;;;;;;;10.83;100.00;100669.13;10540130;28;20101;-75
2022/11/07 06:26:40;;;;;;;18.02;5.57;;;;;;;10.77;100.00;100678.91;10542112;28;20410;-72
2022/11/07 06:31:41;;;;;;;18.27;5.93;;;;;;;10.73;100.00;100683.06;10540451;28;20032;-72
2022/11/07 06:36:41;;;;;;;7.47;4.13;;;;;;;10.69;100.00;100690.75;10540470;28;20036;-74
2022/11/07 06:41:41;;;;;;;16.75;4.00;;;;;;;10.65;100.00;100680.53;10539989;28;20032;-73
2022/11/07 06:46:42;;;;;;;18.33;4.68;;;;;;;10.62;100.00;100691.75;10540124;28;20206;-73
2022/11/07 06:51:42;;;;;;;12.45;4.30;;;;;;;10.60;100.00;100693.84;10540078;28;20040;-74
2022/11/07 06:56:43;;;;;;;16.05;5.22;;;;;;;10.59;100.00;100687.59;10555621;28;20044;-72
2022/11/07 07:01:43;;;;;;;9.40;3.55;;;;;;;10.63;100.00;100688.03;10538421;28;20091;-74
2022/11/07 07:06:44;;;;;;;14.32;4.25;;;;;;;10.70;100.00;100695.13;10539007;28;20043;-74
2022/11/07 07:11:45;;;;;;;6.78;4.03;;;;;;;10.75;100.00;100709.94;10539482;28;20036;-74
2022/11/07 07:16:46;;;;;;;21.48;5.60;;;;;;;10.76;100.00;100704.31;10539527;28;20031;-74
2022/11/07 07:21:46;;;;;;;7.22;3.92;;;;;;;10.82;100.00;100718.94;10540072;28;20056;-73
2022/11/07 07:26:46;;;;;;;12.20;5.45;;;;;;;10.86;100.00;100725.59;10554518;28;20478;-74
2022/11/07 07:31:47;;;;;;;9.45;2.88;;;;;;;10.92;100.00;100736.47;10538694;28;20032;-73
2022/11/07 07:36:47;;;;;;;12.48;3.40;;;;;;;11.04;100.00;100741.28;10538841;28;20044;-73
2022/11/07 07:41:49;;;;;;;5.72;3.03;;;;;;;11.12;100.00;100746.50;10539082;28;20047;-73
2022/11/07 07:46:49;;;;;;;10.93;4.38;;;;;;;11.14;100.00;100744.44;10538397;28;20066;-73
2022/11/07 07:51:49;;;;;;;12.57;4.18;;;;;;;11.45;100.00;100757.41;10538327;28;20107;-72
2022/11/07 07:56:50;;;;;;;4.90;3.45;;;;;;;11.57;100.00;100765.78;10539284;28;20032;-72
2022/11/07 08:01:50;;;;;;;14.10;3.97;;;;;;;11.77;100.00;100768.50;10538807;28;20468;-72
2022/11/07 08:06:51;;;;;;;9.75;3.88;;;;;;;11.88;100.00;100772.50;10538880;28;20032;-72
2022/11/07 08:11:51;;;;;;;5.18;2.95;;;;;;;11.93;100.00;100789.81;10539514;28;20039;-71
2022/11/07 08:16:51;;;;;;;9.27;4.07;;;;;;;12.04;100.00;100782.94;10538912;28;20043;-71
2022/11/07 08:21:52;;;;;;;13.55;4.63;;;;;;;11.99;100.00;100790.84;10546467;28;20063;-71
2022/11/07 08:26:52;;;;;;;13.35;4.32;;;;;;;11.88;100.00;100794.22;10545262;28;20051;-70
2022/11/07 08:31:52;;;;;;;11.02;3.65;;;;;;;11.71;100.00;100800.03;10544610;28;20039;-70
2022/11/07 08:36:53;;;;;;;10.48;4.88;;;;;;;11.85;100.00;100795.44;10545165;28;20043;-70
2022/11/07 08:41:53;;;;;;;25.23;4.53;;;;;;;11.89;100.00;100804.00;10545520;28;20521;-70
2022/11/07 08:46:54;;;;;;;18.05;3.97;;;;;;;12.03;100.00;100813.84;10545771;28;20348;-70
2022/11/07 08:51:54;;;;;;;5.68;2.92;;;;;;;12.46;100.00;100799.78;10543070;28;20032;-69
2022/11/07 08:56:55;;;;;;;9.70;3.88;;;;;;;12.59;100.00;100815.22;10560012;28;20036;-69
2022/11/07 09:01:55;;;;;;;7.55;4.53;;;;;;;12.44;100.00;100821.69;10542584;28;20387;-69
2022/11/07 09:06:56;;;;;;;11.70;3.53;;;;;;;12.41;100.00;100826.72;10543888;28;20032;-68
2022/11/07 09:11:56;;;;;;;14.02;4.00;;;;;;;12.32;100.00;100835.09;10544311;28;20111;-68
2022/11/07 09:16:57;;;;;;;18.52;4.68;;;;;;;12.34;100.00;100833.00;10559351;28;20082;-68
2022/11/07 09:21:57;;;;;;;11.30;4.63;;;;;;;12.25;100.00;100839.72;10558795;28;20478;-68
2022/11/07 09:26:57;;;;;;;7.80;3.75;;;;;;;12.38;100.00;100829.84;10541578;28;20036;-68
2022/11/07 09:31:58;;;;;;;5.07;3.08;;;;;;;12.56;100.00;100830.88;10542516;28;20115;-67
2022/11/07 09:36:58;;;;;;;11.10;3.88;;;;;;;12.75;100.00;100836.47;10542488;28;20036;-68
2022/11/07 09:42:21;;;;;;;13.32;4.18;;;;;;;12.77;100.00;100847.97;10542150;28;20028;-68
2022/11/07 09:47:23;;;;;;;8.15;3.63;;;;;;;12.72;100.00;100853.22;10501659;28;20059;-68
2022/11/07 09:52:30;;;;;;;15.68;3.72;;;;;;;12.97;100.00;100843.31;10544370;28;20020;-68
2022/11/07 09:57:32;;;;;;;;;;;;;;;13.16;100.00;100844.28;10545218;28;20028;-67
2022/11/07 10:02:32;;;;;;;16.15;4.20;;;;;;;13.76;100.00;100862.19;10543719;28;19966;-68
2022/11/07 10:07:47;;;;;;;20.63;4.70;;;;;;;14.09;100.00;100859.22;10523567;28;20116;-67
2022/11/07 10:12:56;;;;;;;7.53;3.03;;;;;;;14.13;100.00;100857.72;10525271;28;20383;-68
2022/11/07 10:17:56;;;;;;;13.32;4.53;;;;;;;13.75;100.00;100857.78;10540037;28;20034;-66
2022/11/07 10:23:00;;;;;;;12.63;4.95;;;;;;;13.62;100.00;100872.31;10543286;28;20127;-68
2022/11/07 10:28:06;;;;;;;6.03;3.83;;;;;;;13.66;100.00;100868.94;10541317;28;20119;-67
2022/11/07 10:33:22;;;;;;;17.35;4.63;;;;;;;13.41;100.00;100876.22;10540793;28;20032;-69
2022/11/07 10:38:27;;;;;;;6.50;3.03;;;;;;;13.25;100.00;100875.66;10539770;28;20034;-68
2022/11/07 10:43:38;;;;;;;10.77;3.80;;;;;;;13.18;100.00;100882.16;10539229;28;20038;-69
2022/11/07 10:48:58;;;;;;;11.45;4.53;;;;;;;13.12;100.00;100900.13;10538495;28;20091;-68
2022/11/07 10:53:58;;;;;;;10.57;4.82;;;;;;;12.99;100.00;100894.75;10538922;28;20035;-71
2022/11/07 10:59:01;;;;;;;5.95;3.13;;;;;;;12.90;100.00;100898.75;10539924;28;20028;-71
2022/11/07 11:04:01;;;;;;;8.27;4.97;;;;;;;12.93;100.00;100887.44;10540747;28;20028;-70
2022/11/07 11:09:11;;;;;;;13.48;6.22;;;;;;;13.01;100.00;100888.03;10522203;28;20032;-70
2022/11/07 11:14:13;;;;;;;8.38;4.05;;;;;;;13.25;100.00;100889.25;10540026;28;20036;-71
2022/11/07 11:19:19;;;;;;;16.98;5.03;;;;;;;13.30;100.00;100877.72;10538045;28;20076;-71
2022/11/07 11:24:46;;;;;;;14.98;4.88;;;;;;;13.37;100.00;100877.66;10521680;28;20032;-71
2022/11/07 11:30:06;;;;;;;8.30;4.40;;;;;;;13.37;100.00;100883.13;10536799;28;20130;-70
2022/11/07 11:35:27;;;;;;;20.92;4.68;;;;;;;13.34;100.00;100886.28;10542341;28;20592;-71
2022/11/07 11:40:27;;;;;;;11.07;3.47;;;;;;;13.28;100.00;100879.00;10538904;28;20051;-71
2022/11/07 11:46:01;;;;;;;9.05;4.38;;;;;;;13.32;100.00;100880.22;10537650;28;20035;-69
2022/11/07 11:51:08;;;;;;;13.98;4.30;;;;;;;13.25;100.00;100878.38;10538405;28;20020;-70
2022/11/07 11:56:48;;;;;;;10.52;5.22;;;;;;;13.36;100.00;100878.72;10527901;28;20031;-70
2022/11/07 12:01:51;;;;;;;25.40;5.82;;;;;;;13.47;100.00;100869.91;10545193;28;20468;-69
2022/11/07 12:06:56;;;;;;;13.05;4.60;;;;;;;13.45;100.00;100880.16;10547066;28;20039;-69
2022/11/07 12:12:15;;;;;;;16.73;3.88;;;;;;;13.43;100.00;100876.81;10530100;28;20380;-69
2022/11/07 12:17:37;;;;;;;6.93;4.07;;;;;;;13.43;100.00;100874.09;10546605;28;20498;-69
2022/11/07 12:22:43;;;;;;;11.55;3.85;;;;;;;13.42;100.00;100880.59;10550202;28;20051;-68
2022/11/07 12:28:21;;;;;;;18.45;3.83;;;;;;;13.54;100.00;100876.13;10545173;28;20032;-68
2022/11/07 12:33:36;;;;;;;19.35;5.43;;;;;;;13.55;100.00;100871.53;10530085;28;20088;-68
2022/11/07 12:38:58;;;;;;;10.32;3.08;;;;;;;13.59;100.00;100872.75;10545414;28;20095;-69
2022/11/07 12:44:18;;;;;;;10.18;4.30;;;;;;;13.55;100.00;100874.25;10527580;28;20031;-69
2022/11/07 12:49:30;;;;;;;19.27;4.75;;;;;;;13.48;100.00;100866.94;10527101;28;20059;-70
2022/11/07 12:54:46;;;;;;;12.27;3.50;;;;;;;13.52;100.00;100861.06;10543748;28;20070;-70
2022/11/07 13:00:17;;;;;;;5.70;3.38;;;;;;;13.61;100.00;100870.66;10527593;28;20059;-69
2022/11/07 13:05:33;;;;;;;17.23;4.53;;;;;;;13.62;100.00;100866.88;10543279;28;20489;-70
2022/11/07 13:10:40;;;;;;;8.75;4.22;;;;;;;13.64;100.00;100852.00;10543863;28;20028;-70
2022/11/07 13:15:41;;;;;;;12.70;3.40;;;;;;;13.67;100.00;100862.44;10541897;28;20105;-69
2022/11/07 13:20:41;;;;;;;6.72;3.90;;;;;;;13.84;100.00;100856.47;10509516;28;20048;-68
2022/11/07 13:25:42;;;;;;;15.18;4.88;;;;;;;13.91;100.00;100857.25;10543328;28;20028;-70
2022/11/07 13:30:42;;;;;;;11.60;5.03;;;;;;;13.88;100.00;100847.66;10541568;28;20563;-70
2022/11/07 13:35:52;;;;;;;13.60;4.43;;;;;;;13.82;100.00;100843.09;10525741;28;20487;-70
2022/11/07 13:41:03;;;;;;;10.15;4.15;;;;;;;13.70;100.00;100851.13;10541991;28;20036;-70
2022/11/07 13:46:05;;;;;;;5.22;3.38;;;;;;;13.62;100.00;100854.09;10524435;28;20028;-71
2022/11/07 13:51:15;;;;;;;7.13;3.67;;;;;;;13.53;100.00;100844.56;10541149;28;20424;-72
2022/11/07 13:56:36;;;;;;;5.22;3.95;;;;;;;13.48;100.00;100845.19;10542716;28;20036;-70
2022/11/07 14:01:43;;;;;;;16.73;4.05;;;;;;;13.51;100.00;100843.94;10543435;28;20036;-71
2022/11/07 14:06:43;;;;;;;7.32;3.83;;;;;;;13.41;100.00;100841.69;10523677;28;20039;-72
2022/11/07 14:11:45;;;;;;;11.68;3.65;;;;;;;13.32;100.00;100856.56;10542623;28;20075;-73
2022/11/07 14:16:45;;;;;;;8.50;3.38;;;;;;;13.23;100.00;100850.50;10539325;28;20044;-72
2022/11/07 14:21:46;;;;;;;12.88;4.40;;;;;;;13.23;100.00;100860.56;10522941;28;20169;-74
2022/11/07 14:27:11;;;;;;;5.55;3.10;;;;;;;13.20;100.00;100850.94;10540781;28;20416;-73
2022/11/07 14:32:14;;;;;;;9.10;4.45;;;;;;;13.22;100.00;100859.72;10541385;28;20028;-72
2022/11/07 14:37:17;;;;;;;9.60;4.55;;;;;;;13.11;100.00;100846.78;10522490;28;20039;-73
2022/11/07 14:42:18;;;;;;;10.18;3.42;;;;;;;13.09;100.00;100851.63;10541288;28;20043;-74
2022/11/07 14:47:23;;;;;;;13.43;3.40;;;;;;;13.13;100.00;100857.47;10545627;28;20430;-71
2022/11/07 14:52:55;;;;;;;11.30;3.40;;;;;;;13.10;100.00;100850.56;10545418;28;20383;-73
2022/11/07 14:58:03;;;;;;;10.68;4.95;;;;;;;13.04;100.00;100854.16;10527400;28;20036;-73
2022/11/07 15:03:03;;;;;;;15.82;5.78;;;;;;;13.00;100.00;100850.19;10540684;28;20036;-73
2022/11/07 15:08:04;;;;;;;7.70;3.17;;;;;;;12.96;100.00;100849.81;10540221;28;20042;-72
2022/11/07 15:13:19;;;;;;;13.65;4.55;;;;;;;12.99;100.00;100853.97;10540174;28;20458;-73
2022/11/07 15:18:24;;;;;;;6.82;4.45;;;;;;;12.96;100.00;100847.09;10523716;28;20028;-72
2022/11/07 15:23:32;;;;;;;14.45;5.03;;;;;;;13.00;100.00;100847.47;10521149;28;20353;-72
2022/11/07 15:28:41;;;;;;;10.15;4.72;;;;;;;12.94;100.00;100841.00;10545713;28;20048;-72
2022/11/07 15:33:41;;;;;;;11.02;5.78;;;;;;;12.92;100.00;100824.09;10548647;28;20031;-72
2022/11/07 15:38:42;;;;;;;10.95;4.13;;;;;;;12.92;100.00;100839.56;10529830;28;20429;-72
2022/11/07 15:43:42;;;;;;;11.60;5.10;;;;;;;12.93;100.00;100831.19;10563319;28;20028;-72
2022/11/07 15:48:43;;;;;;;10.00;5.05;;;;;;;12.99;100.00;100835.78;10546622;28;20074;-72
2022/11/07 15:53:43;;;;;;;18.73;5.30;;;;;;;12.99;100.00;100840.38;10545868;28;20051;-72
2022/11/07 15:58:43;;;;;;;12.05;4.80;;;;;;;13.05;100.00;100839.53;10547635;28;20391;-72
2022/11/07 16:03:44;;;;;;;18.33;4.93;;;;;;;13.10;100.00;100836.97;10562600;28;20059;-71
2022/11/07 16:08:44;;;;;;;21.17;4.57;;;;;;;13.10;100.00;100847.03;10545116;28;20127;-72
2022/11/07 16:13:45;;;;;;;14.52;4.18;;;;;;;13.17;100.00;100843.22;10545962;28;20061;-72
2022/11/07 16:18:45;;;;;;;15.10;4.45;;;;;;;13.19;100.00;100856.59;10546016;28;20039;-69
2022/11/07 16:23:49;;;;;;;11.70;4.13;;;;;;;13.21;100.00;100859.97;10544807;28;20036;-71
2022/11/07 16:28:49;;;;;;;10.23;3.95;;;;;;;13.25;100.00;100856.59;10546987;28;20045;-70
2022/11/07 16:33:52;;;;;;;11.32;3.78;;;;;;;13.29;100.00;100854.28;10545773;28;20045;-71
2022/11/07 16:38:52;;;;;;;7.43;3.15;;;;;;;13.32;100.00;100863.91;10527444;28;20039;-71
2022/11/07 16:43:52;;;;;;;9.63;3.53;;;;;;;13.26;100.00;100855.53;10544089;28;20407;-71
2022/11/07 16:48:57;;;;;;;13.15;5.25;;;;;;;13.32;100.00;100847.59;10543519;28;20066;-72
2022/11/07 16:53:57;;;;;;;14.95;4.90;;;;;;;13.30;100.00;100847.78;10544919;28;20071;-70
2022/11/07 16:58:57;;;;;;;10.23;3.63;;;;;;;13.35;100.00;100856.16;10543269;28;20036;-69
2022/11/07 17:03:58;;;;;;;12.07;3.95;;;;;;;13.39;100.00;100851.09;10545036;28;20036;-70
2022/11/07 17:08:59;;;;;;;11.45;4.18;;;;;;;13.38;100.00;100847.56;10544304;28;20131;-69
2022/11/07 17:13:59;;;;;;;9.73;4.20;;;;;;;13.37;100.00;100845.91;10543676;28;20054;-69
2022/11/07 17:19:00;;;;;;;24.30;5.13;;;;;;;13.44;100.00;100852.13;10525759;28;20369;-69
2022/11/07 17:24:00;;;;;;;16.30;4.68;;;;;;;13.43;100.00;100846.88;10544006;28;20028;-69
2022/11/07 17:29:01;;;;;;;9.10;4.50;;;;;;;13.31;100.00;100859.53;10542776;28;20028;-70
2022/11/07 17:34:02;;;;;;;11.40;3.88;;;;;;;13.37;100.00;100864.94;10543350;28;20599;-68
2022/11/07 17:39:09;;;;;;;19.02;4.53;;;;;;;13.40;100.00;100861.78;10543124;28;20040;-69
2022/11/07 17:44:10;;;;;;;6.75;3.67;;;;;;;13.40;100.00;100866.34;10525507;28;20032;-68
2022/11/07 17:49:15;;;;;;;4.20;2.97;;;;;;;13.46;100.00;100860.91;10540731;28;20032;-67
2022/11/07 17:54:15;;;;;;;13.70;3.83;;;;;;;13.44;100.00;100865.72;10541825;28;20082;-68
2022/11/07 17:59:16;;;;;;;14.57;4.30;;;;;;;13.44;100.00;100867.63;10541587;28;20429;-67
2022/11/07 18:04:17;;;;;;;17.13;4.95;;;;;;;13.37;100.00;100853.19;10542435;28;20452;-68
2022/11/07 18:09:17;;;;;;;11.65;4.70;;;;;;;13.23;100.00;100868.72;10541046;28;20032;-68
2022/11/07 18:14:17;;;;;;;9.00;4.25;;;;;;;13.29;100.00;100869.78;10541893;28;20032;-68
2022/11/07 18:19:18;;;;;;;21.75;4.47;;;;;;;13.39;100.00;100868.25;10541980;28;20486;-67
2022/11/07 18:24:19;;;;;;;18.75;4.38;;;;;;;13.31;100.00;100856.81;10541828;28;20039;-68
2022/11/07 18:29:19;;;;;;;10.10;4.07;;;;;;;13.16;100.00;100851.59;10541027;28;20043;-66
2022/11/07 18:34:19;;;;;;;13.73;4.50;;;;;;;13.12;100.00;100858.53;10556521;28;20552;-67
2022/11/07 18:39:20;;;;;;;6.75;3.65;;;;;;;13.09;100.00;100861.69;10541579;28;20380;-68
2022/11/07 18:44:21;;;;;;;8.10;3.10;;;;;;;13.08;100.00;100860.84;10541327;28;20422;-69
2022/11/07 18:49:23;;;;;;;8.75;4.22;;;;;;;13.07;100.00;100853.72;10556312;28;20032;-68
2022/11/07 18:54:25;;;;;;;6.93;3.30;;;;;;;13.11;100.00;100865.00;10556207;28;20524;-68
2022/11/07 18:59:25;;;;;;;4.50;4.07;;;;;;;13.09;100.00;100856.25;10539080;28;20560;-67
2022/11/07 19:04:26;;;;;;;5.32;4.20;;;;;;;13.10;100.00;100869.59;10538444;28;20172;-68
2022/11/07 19:09:28;;;;;;;6.45;3.28;;;;;;;13.09;100.00;100856.25;10539199;28;20024;-68
2022/11/07 19:14:29;;;;;;;11.95;3.30;;;;;;;13.05;100.00;100858.56;10539820;28;20052;-68
2022/11/07 19:19:29;;;;;;;9.43;4.38;;;;;;;13.04;100.00;100865.03;10521694;28;20471;-68
2022/11/07 19:24:29;;;;;;;9.77;4.00;;;;;;;13.01;100.00;100866.28;10540991;28;20039;-68
2022/11/07 19:29:30;;;;;;;9.18;4.85;;;;;;;13.05;100.00;100855.84;10538754;28;20432;-68
2022/11/07 19:34:31;;;;;;;10.75;4.68;;;;;;;13.07;100.00;100861.88;10538842;28;20078;-67
2022/11/07 19:39:35;;;;;;;20.40;4.38;;;;;;;13.10;100.00;100856.00;10537638;28;20527;-68
2022/11/07 19:44:36;;;;;;;16.27;4.57;;;;;;;13.21;100.00;100857.25;10537961;28;20039;-70
2022/11/07 19:49:36;;;;;;;9.18;4.13;;;;;;;13.29;100.00;100856.19;10540035;28;20032;-69
2022/11/07 19:54:37;;;;;;;23.50;5.03;;;;;;;13.25;100.00;100853.88;10539912;28;20032;-69
2022/11/07 19:59:37;;;;;;;15.13;5.00;;;;;;;13.28;100.00;100862.69;10555150;28;20118;-69
2022/11/07 20:04:38;;;;;;;12.63;4.60;;;;;;;13.30;100.00;100871.44;10539872;28;20040;-69
2022/11/07 20:09:38;;;;;;;25.05;4.50;;;;;;;13.38;100.00;100876.63;10522246;28;20024;-68
2022/11/07 20:14:39;;;;;;;7.57;3.45;;;;;;;13.44;100.00;100881.22;10557994;28;20599;-68
2022/11/07 20:19:39;;;;;;;8.55;5.00;;;;;;;13.35;100.00;100868.91;10545134;28;20403;-68
2022/11/07 20:24:40;;;;;;;9.52;3.78;;;;;;;13.41;100.00;100866.16;10545533;28;20383;-69
2022/11/07 20:29:40;;;;;;;11.30;4.20;;;;;;;13.39;100.00;100865.53;10545657;28;20032;-68
2022/11/07 20:34:40;;;;;;;6.78;3.08;;;;;;;13.42;100.00;100867.00;10545636;28;20040;-70
2022/11/07 20:39:43;;;;;;;9.02;4.10;;;;;;;13.42;100.00;100856.09;10527087;28;20028;-69
2022/11/07 20:44:43;;;;;;;7.53;3.33;;;;;;;13.45;100.00;100863.84;10545607;28;20384;-68
2022/11/07 20:49:43;;;;;;;9.25;4.22;;;;;;;13.46;100.00;100852.75;10560300;28;20036;-68
2022/11/07 20:54:44;;;;;;;10.18;4.13;;;;;;;13.54;100.00;100851.66;10543882;28;20050;-69
2022/11/07 20:59:44;;;;;;;12.88;3.80;;;;;;;13.61;100.00;100873.38;10545672;28;20085;-71
2022/11/07 21:04:45;;;;;;;15.43;3.85;;;;;;;13.55;100.00;100872.34;10546874;28;20024;-68
2022/11/07 21:09:45;;;;;;;6.50;4.18;;;;;;;13.53;100.00;100873.63;10545357;28;20055;-67
2022/11/07 21:14:46;;;;;;;10.00;3.25;;;;;;;13.57;100.00;100869.44;10562068;28;20127;-69
2022/11/07 21:19:46;;;;;;;7.57;2.97;;;;;;;13.52;100.00;100878.22;10544881;28;20047;-68
2022/11/07 21:24:46;;;;;;;8.35;3.80;;;;;;;13.52;100.00;100872.78;10542930;28;20024;-67
2022/11/07 21:29:47;;;;;;;9.55;3.13;;;;;;;13.55;100.00;100880.50;10543656;28;20068;-68
2022/11/07 21:34:47;;;;;;;8.43;4.10;;;;;;;13.55;100.00;100869.63;10541986;28;20090;-69
2022/11/07 21:39:47;;;;;;;14.52;3.88;;;;;;;13.53;100.00;100866.31;10543221;28;20040;-69
2022/11/07 21:44:48;;;;;;;10.52;3.67;;;;;;;13.38;100.00;100857.59;10543566;28;20050;-67
2022/11/07 21:49:48;;;;;;;2.97;2.75;;;;;;;13.23;100.00;100863.28;10544305;28;20040;-68
2022/11/07 21:54:49;;;;;;;9.80;3.33;;;;;;;13.15;100.00;100863.53;10544286;28;20055;-67
2022/11/07 21:59:49;;;;;;;7.10;3.10;;;;;;;13.11;100.00;100860.38;10542286;28;20102;-65
2022/11/07 22:04:49;;;;;;;5.57;3.13;;;;;;;13.18;100.00;100860.38;10542722;28;20040;-69
2022/11/07 22:09:50;;;;;;;9.07;3.65;;;;;;;13.25;100.00;100863.94;10540817;28;20034;-68
2022/11/07 22:14:50;;;;;;;10.13;3.75;;;;;;;13.30;100.00;100857.84;10541453;28;20024;-68
2022/11/07 22:19:51;;;;;;;10.27;3.97;;;;;;;13.35;100.00;100866.19;10540622;28;20094;-68
2022/11/07 22:24:51;;;;;;;7.28;2.97;;;;;;;13.36;100.00;100851.53;10542625;28;20036;-68
2022/11/07 22:29:52;;;;;;;11.10;3.78;;;;;;;13.33;100.00;100846.53;10541477;28;20036;-68
2022/11/07 22:34:52;;;;;;;10.93;3.55;;;;;;;13.33;100.00;100841.91;10541862;28;20028;-68
2022/11/07 22:39:52;;;;;;;9.63;3.70;;;;;;;13.28;100.00;100835.47;10540340;28;20036;-68
2022/11/07 22:44:53;;;;;;;3.85;2.72;;;;;;;13.17;100.00;100826.91;10541438;28;20415;-68
2022/11/07 22:49:53;;;;;;;18.70;4.47;;;;;;;13.06;100.00;100826.75;10541328;28;20448;-68
2022/11/07 22:54:54;;;;;;;11.85;3.55;;;;;;;12.97;100.00;100818.84;10555764;28;20035;-68